sensor_id;sensor_type;location;lat;lon;timestamp;P1;durP1;ratioP1;P2;durP2;ratioP2
72087;SDS011;59961;50.232;8.616;2022-09-24T00:00:27;5.10;;;2.83;;
72087;SDS011;59961;50.232;8.616;2022-09-24T00:02:52;5.90;;;2.50;;
72087;SDS011;59961;50.232;8.616;2022-09-24T00:05:17;4.65;;;2.50;;
72087;SDS011;59961;50.232;8.616;2022-09-24T00:07:42;6.00;;;2.47;;
72087;SDS011;59961;50.232;8.616;2022-09-24T00:10:07;5.80;;;2.30;;
72087;SDS011;59961;50.232;8.616;2022-09-24T00:12:32;5.00;;;2.97;;
72087;SDS011;59961;50.232;8.616;2022-09-24T00:14:58;5.72;;;2.45;;
72087;SDS011;59961;50.232;8.616;2022-09-24T00:17:23;5.32;;;2.17;;
72087;SDS011;59961;50.232;8.616;2022-09-24T00:19:48;3.87;;;2.00;;
72087;SDS011;59961;50.232;8.616;2022-09-24T00:22:14;4.20;;;2.50;;
72087;SDS011;59961;50.232;8.616;2022-09-24T00:24:39;6.03;;;2.65;;
72087;SDS011;59961;50.232;8.616;2022-09-24T00:27:22;4.45;;;2.45;;
72087;SDS011;59961;50.232;8.616;2022-09-24T00:29:48;7.80;;;2.50;;
72087;SDS011;59961;50.232;8.616;2022-09-24T00:32:13;4.80;;;2.37;;
72087;SDS011;59961;50.232;8.616;2022-09-24T00:34:38;4.87;;;2.40;;
72087;SDS011;59961;50.232;8.616;2022-09-24T00:37:03;5.30;;;2.53;;
72087;SDS011;59961;50.232;8.616;2022-09-24T00:39:28;6.47;;;2.35;;
72087;SDS011;59961;50.232;8.616;2022-09-24T00:41:54;4.85;;;2.53;;
72087;SDS011;59961;50.232;8.616;2022-09-24T00:47:03;5.90;;;2.60;;
72087;SDS011;59961;50.232;8.616;2022-09-24T00:49:28;5.33;;;2.67;;
72087;SDS011;59961;50.232;8.616;2022-09-24T00:51:53;5.20;;;2.13;;
72087;SDS011;59961;50.232;8.616;2022-09-24T00:54:20;4.53;;;2.47;;
72087;SDS011;59961;50.232;8.616;2022-09-24T00:56:47;4.10;;;2.45;;
72087;SDS011;59961;50.232;8.616;2022-09-24T00:59:13;3.55;;;2.28;;
72087;SDS011;59961;50.232;8.616;2022-09-24T01:01:41;3.75;;;2.22;;
72087;SDS011;59961;50.232;8.616;2022-09-24T01:04:07;5.53;;;2.67;;
72087;SDS011;59961;50.232;8.616;2022-09-24T01:06:32;4.97;;;2.70;;
72087;SDS011;59961;50.232;8.616;2022-09-24T01:08:57;6.70;;;2.70;;
72087;SDS011;59961;50.232;8.616;2022-09-24T01:11:34;5.47;;;2.47;;
72087;SDS011;59961;50.232;8.616;2022-09-24T01:22:07;7.05;;;2.88;;
72087;SDS011;59961;50.232;8.616;2022-09-24T01:24:59;6.88;;;2.78;;
72087;SDS011;59961;50.232;8.616;2022-09-24T01:30:09;5.03;;;2.60;;
72087;SDS011;59961;50.232;8.616;2022-09-24T01:32:37;5.18;;;3.03;;
72087;SDS011;59961;50.232;8.616;2022-09-24T01:35:06;4.88;;;2.45;;
72087;SDS011;59961;50.232;8.616;2022-09-24T01:37:32;5.20;;;2.80;;
72087;SDS011;59961;50.232;8.616;2022-09-24T01:39:59;6.03;;;2.50;;
72087;SDS011;59961;50.232;8.616;2022-09-24T01:42:26;5.80;;;2.55;;
72087;SDS011;59961;50.232;8.616;2022-09-24T01:44:53;7.60;;;2.67;;
72087;SDS011;59961;50.232;8.616;2022-09-24T01:47:22;6.27;;;2.80;;
72087;SDS011;59961;50.232;8.616;2022-09-24T01:49:50;6.55;;;3.20;;
72087;SDS011;59961;50.232;8.616;2022-09-24T01:52:18;6.15;;;3.20;;
72087;SDS011;59961;50.232;8.616;2022-09-24T01:54:45;5.25;;;2.83;;
72087;SDS011;59961;50.232;8.616;2022-09-24T02:02:16;6.13;;;3.20;;
72087;SDS011;59961;50.232;8.616;2022-09-24T02:04:43;4.90;;;3.08;;
72087;SDS011;59961;50.232;8.616;2022-09-24T02:07:11;6.53;;;3.05;;
72087;SDS011;59961;50.232;8.616;2022-09-24T02:09:39;5.47;;;2.90;;
72087;SDS011;59961;50.232;8.616;2022-09-24T02:12:50;5.43;;;2.77;;
72087;SDS011;59961;50.232;8.616;2022-09-24T02:14:54;5.90;;;2.88;;
72087;SDS011;59961;50.232;8.616;2022-09-24T02:17:21;5.30;;;3.05;;
72087;SDS011;59961;50.232;8.616;2022-09-24T02:19:47;6.13;;;2.90;;
72087;SDS011;59961;50.232;8.616;2022-09-24T02:22:13;6.97;;;3.03;;
72087;SDS011;59961;50.232;8.616;2022-09-24T02:27:06;4.88;;;2.75;;
72087;SDS011;59961;50.232;8.616;2022-09-24T02:29:31;5.03;;;2.40;;
72087;SDS011;59961;50.232;8.616;2022-09-24T02:31:56;5.13;;;3.00;;
72087;SDS011;59961;50.232;8.616;2022-09-24T02:34:26;5.07;;;2.78;;
72087;SDS011;59961;50.232;8.616;2022-09-24T02:36:56;5.93;;;2.72;;
72087;SDS011;59961;50.232;8.616;2022-09-24T02:39:23;7.63;;;2.97;;
72087;SDS011;59961;50.232;8.616;2022-09-24T02:41:48;6.33;;;3.17;;
72087;SDS011;59961;50.232;8.616;2022-09-24T02:44:14;7.13;;;3.27;;
72087;SDS011;59961;50.232;8.616;2022-09-24T02:46:39;6.28;;;3.22;;
72087;SDS011;59961;50.232;8.616;2022-09-24T02:49:05;5.83;;;2.77;;
72087;SDS011;59961;50.232;8.616;2022-09-24T02:51:30;6.67;;;3.27;;
72087;SDS011;59961;50.232;8.616;2022-09-24T02:53:55;7.57;;;2.95;;
72087;SDS011;59961;50.232;8.616;2022-09-24T02:56:21;5.25;;;2.95;;
72087;SDS011;59961;50.232;8.616;2022-09-24T02:58:46;7.63;;;2.97;;
72087;SDS011;59961;50.232;8.616;2022-09-24T03:01:11;7.47;;;3.37;;
72087;SDS011;59961;50.232;8.616;2022-09-24T03:03:36;8.33;;;3.40;;
72087;SDS011;59961;50.232;8.616;2022-09-24T03:06:01;6.70;;;3.10;;
72087;SDS011;59961;50.232;8.616;2022-09-24T03:08:26;5.93;;;3.20;;
72087;SDS011;59961;50.232;8.616;2022-09-24T03:10:52;6.50;;;3.00;;
72087;SDS011;59961;50.232;8.616;2022-09-24T03:13:19;6.65;;;3.28;;
72087;SDS011;59961;50.232;8.616;2022-09-24T03:15:45;5.77;;;3.07;;
72087;SDS011;59961;50.232;8.616;2022-09-24T03:18:10;4.50;;;2.60;;
72087;SDS011;59961;50.232;8.616;2022-09-24T03:20:35;5.67;;;3.13;;
72087;SDS011;59961;50.232;8.616;2022-09-24T03:23:00;6.87;;;3.60;;
72087;SDS011;59961;50.232;8.616;2022-09-24T03:25:25;5.93;;;2.80;;
72087;SDS011;59961;50.232;8.616;2022-09-24T03:27:51;7.87;;;3.40;;
72087;SDS011;59961;50.232;8.616;2022-09-24T03:30:16;6.97;;;3.40;;
72087;SDS011;59961;50.232;8.616;2022-09-24T03:33:19;6.40;;;3.03;;
72087;SDS011;59961;50.232;8.616;2022-09-24T03:35:44;7.20;;;3.30;;
72087;SDS011;59961;50.232;8.616;2022-09-24T03:38:09;7.22;;;3.42;;
72087;SDS011;59961;50.232;8.616;2022-09-24T03:40:35;5.97;;;3.20;;
72087;SDS011;59961;50.232;8.616;2022-09-24T03:43:00;5.97;;;3.00;;
72087;SDS011;59961;50.232;8.616;2022-09-24T03:45:25;6.77;;;3.27;;
72087;SDS011;59961;50.232;8.616;2022-09-24T03:47:50;6.33;;;3.20;;
72087;SDS011;59961;50.232;8.616;2022-09-24T03:50:15;5.80;;;2.92;;
72087;SDS011;59961;50.232;8.616;2022-09-24T03:52:41;8.13;;;3.00;;
72087;SDS011;59961;50.232;8.616;2022-09-24T03:55:06;5.68;;;2.95;;
72087;SDS011;59961;50.232;8.616;2022-09-24T03:57:32;5.80;;;2.87;;
72087;SDS011;59961;50.232;8.616;2022-09-24T03:59:57;9.03;;;3.40;;
72087;SDS011;59961;50.232;8.616;2022-09-24T04:02:23;8.50;;;3.70;;
72087;SDS011;59961;50.232;8.616;2022-09-24T04:04:48;7.17;;;4.00;;
72087;SDS011;59961;50.232;8.616;2022-09-24T04:07:14;6.97;;;3.80;;
72087;SDS011;59961;50.232;8.616;2022-09-24T04:09:39;5.90;;;3.00;;
72087;SDS011;59961;50.232;8.616;2022-09-24T04:12:05;7.43;;;3.50;;
72087;SDS011;59961;50.232;8.616;2022-09-24T04:14:30;6.60;;;3.30;;
72087;SDS011;59961;50.232;8.616;2022-09-24T04:16:55;5.80;;;3.08;;
72087;SDS011;59961;50.232;8.616;2022-09-24T04:19:22;7.43;;;3.25;;
72087;SDS011;59961;50.232;8.616;2022-09-24T04:21:48;5.45;;;3.33;;
72087;SDS011;59961;50.232;8.616;2022-09-24T04:24:13;5.85;;;3.33;;
72087;SDS011;59961;50.232;8.616;2022-09-24T04:26:38;6.80;;;3.53;;
72087;SDS011;59961;50.232;8.616;2022-09-24T04:29:03;6.57;;;3.47;;
72087;SDS011;59961;50.232;8.616;2022-09-24T04:31:29;6.65;;;3.25;;
72087;SDS011;59961;50.232;8.616;2022-09-24T04:33:56;6.45;;;3.25;;
72087;SDS011;59961;50.232;8.616;2022-09-24T04:36:21;5.43;;;2.97;;
72087;SDS011;59961;50.232;8.616;2022-09-24T04:38:46;5.07;;;2.70;;
72087;SDS011;59961;50.232;8.616;2022-09-24T04:41:12;6.72;;;3.30;;
72087;SDS011;59961;50.232;8.616;2022-09-24T04:43:39;9.98;;;4.00;;
72087;SDS011;59961;50.232;8.616;2022-09-24T04:46:04;5.47;;;2.88;;
72087;SDS011;59961;50.232;8.616;2022-09-24T04:48:30;7.47;;;3.70;;
72087;SDS011;59961;50.232;8.616;2022-09-24T04:50:55;6.30;;;3.47;;
72087;SDS011;59961;50.232;8.616;2022-09-24T04:53:21;7.03;;;3.63;;
72087;SDS011;59961;50.232;8.616;2022-09-24T04:55:47;6.83;;;3.07;;
72087;SDS011;59961;50.232;8.616;2022-09-24T04:58:12;5.73;;;3.30;;
72087;SDS011;59961;50.232;8.616;2022-09-24T05:00:37;7.20;;;3.67;;
72087;SDS011;59961;50.232;8.616;2022-09-24T05:03:02;6.88;;;3.55;;
72087;SDS011;59961;50.232;8.616;2022-09-24T05:05:37;7.30;;;4.13;;
72087;SDS011;59961;50.232;8.616;2022-09-24T05:08:02;7.22;;;3.90;;
72087;SDS011;59961;50.232;8.616;2022-09-24T05:10:28;6.43;;;3.72;;
72087;SDS011;59961;50.232;8.616;2022-09-24T05:12:55;7.05;;;3.63;;
72087;SDS011;59961;50.232;8.616;2022-09-24T05:15:20;7.85;;;3.80;;
72087;SDS011;59961;50.232;8.616;2022-09-24T05:17:47;9.30;;;3.70;;
72087;SDS011;59961;50.232;8.616;2022-09-24T05:20:12;6.85;;;3.80;;
72087;SDS011;59961;50.232;8.616;2022-09-24T05:22:42;7.90;;;4.33;;
72087;SDS011;59961;50.232;8.616;2022-09-24T05:25:07;8.45;;;3.88;;
72087;SDS011;59961;50.232;8.616;2022-09-24T05:27:32;7.20;;;4.07;;
72087;SDS011;59961;50.232;8.616;2022-09-24T05:29:58;7.40;;;3.70;;
72087;SDS011;59961;50.232;8.616;2022-09-24T05:32:24;6.43;;;3.55;;
72087;SDS011;59961;50.232;8.616;2022-09-24T05:50:18;7.35;;;3.90;;
72087;SDS011;59961;50.232;8.616;2022-09-24T05:52:43;7.13;;;3.58;;
72087;SDS011;59961;50.232;8.616;2022-09-24T05:55:08;7.95;;;4.35;;
72087;SDS011;59961;50.232;8.616;2022-09-24T05:57:33;6.40;;;3.83;;
72087;SDS011;59961;50.232;8.616;2022-09-24T05:59:59;10.87;;;4.60;;
72087;SDS011;59961;50.232;8.616;2022-09-24T06:02:24;8.93;;;4.77;;
72087;SDS011;59961;50.232;8.616;2022-09-24T06:04:49;10.07;;;4.20;;
72087;SDS011;59961;50.232;8.616;2022-09-24T06:07:14;12.80;;;4.35;;
72087;SDS011;59961;50.232;8.616;2022-09-24T06:09:39;11.35;;;4.78;;
72087;SDS011;59961;50.232;8.616;2022-09-24T06:12:06;8.52;;;4.72;;
72087;SDS011;59961;50.232;8.616;2022-09-24T06:14:31;7.37;;;4.47;;
72087;SDS011;59961;50.232;8.616;2022-09-24T06:16:57;7.72;;;4.70;;
72087;SDS011;59961;50.232;8.616;2022-09-24T06:19:22;8.75;;;3.97;;
72087;SDS011;59961;50.232;8.616;2022-09-24T06:21:47;6.57;;;3.93;;
72087;SDS011;59961;50.232;8.616;2022-09-24T06:24:12;7.27;;;4.17;;
72087;SDS011;59961;50.232;8.616;2022-09-24T06:26:37;7.15;;;4.43;;
72087;SDS011;59961;50.232;8.616;2022-09-24T06:29:02;7.55;;;4.13;;
72087;SDS011;59961;50.232;8.616;2022-09-24T06:31:27;9.20;;;4.10;;
72087;SDS011;59961;50.232;8.616;2022-09-24T06:33:53;9.77;;;4.30;;
72087;SDS011;59961;50.232;8.616;2022-09-24T06:36:18;6.53;;;3.78;;
72087;SDS011;59961;50.232;8.616;2022-09-24T06:38:43;8.83;;;4.70;;
72087;SDS011;59961;50.232;8.616;2022-09-24T06:41:09;7.22;;;4.18;;
72087;SDS011;59961;50.232;8.616;2022-09-24T06:43:34;7.53;;;4.17;;
72087;SDS011;59961;50.232;8.616;2022-09-24T06:46:00;7.17;;;3.73;;
72087;SDS011;59961;50.232;8.616;2022-09-24T06:48:26;8.98;;;4.00;;
72087;SDS011;59961;50.232;8.616;2022-09-24T06:50:51;7.65;;;4.13;;
72087;SDS011;59961;50.232;8.616;2022-09-24T06:53:17;7.43;;;4.47;;
72087;SDS011;59961;50.232;8.616;2022-09-24T06:55:42;8.80;;;4.30;;
72087;SDS011;59961;50.232;8.616;2022-09-24T06:58:11;8.68;;;4.20;;
72087;SDS011;59961;50.232;8.616;2022-09-24T07:00:38;8.18;;;4.95;;
72087;SDS011;59961;50.232;8.616;2022-09-24T07:03:04;10.30;;;4.53;;
72087;SDS011;59961;50.232;8.616;2022-09-24T07:05:29;8.15;;;4.90;;
72087;SDS011;59961;50.232;8.616;2022-09-24T07:07:54;10.47;;;5.30;;
72087;SDS011;59961;50.232;8.616;2022-09-24T07:10:20;9.40;;;5.72;;
72087;SDS011;59961;50.232;8.616;2022-09-24T07:12:45;9.57;;;5.30;;
72087;SDS011;59961;50.232;8.616;2022-09-24T07:15:10;8.80;;;5.65;;
72087;SDS011;59961;50.232;8.616;2022-09-24T07:17:35;11.13;;;6.20;;
72087;SDS011;59961;50.232;8.616;2022-09-24T07:20:01;11.27;;;5.77;;
72087;SDS011;59961;50.232;8.616;2022-09-24T07:22:27;9.55;;;5.05;;
72087;SDS011;59961;50.232;8.616;2022-09-24T07:24:52;8.93;;;5.80;;
72087;SDS011;59961;50.232;8.616;2022-09-24T07:27:17;9.00;;;5.47;;
72087;SDS011;59961;50.232;8.616;2022-09-24T07:29:45;11.88;;;6.00;;
72087;SDS011;59961;50.232;8.616;2022-09-24T07:32:10;10.23;;;6.20;;
72087;SDS011;59961;50.232;8.616;2022-09-24T07:34:35;11.60;;;6.30;;
72087;SDS011;59961;50.232;8.616;2022-09-24T07:37:00;10.10;;;5.93;;
72087;SDS011;59961;50.232;8.616;2022-09-24T07:39:25;10.73;;;5.88;;
72087;SDS011;59961;50.232;8.616;2022-09-24T07:41:50;9.37;;;6.00;;
72087;SDS011;59961;50.232;8.616;2022-09-24T07:44:19;12.67;;;6.10;;
72087;SDS011;59961;50.232;8.616;2022-09-24T07:46:47;10.55;;;5.40;;
72087;SDS011;59961;50.232;8.616;2022-09-24T07:49:13;9.70;;;6.13;;
72087;SDS011;59961;50.232;8.616;2022-09-24T07:51:38;10.20;;;6.00;;
72087;SDS011;59961;50.232;8.616;2022-09-24T07:54:03;10.75;;;5.68;;
72087;SDS011;59961;50.232;8.616;2022-09-24T07:56:29;10.10;;;6.07;;
72087;SDS011;59961;50.232;8.616;2022-09-24T07:58:54;10.80;;;6.22;;
72087;SDS011;59961;50.232;8.616;2022-09-24T08:01:20;9.97;;;5.70;;
72087;SDS011;59961;50.232;8.616;2022-09-24T08:03:45;10.47;;;6.00;;
72087;SDS011;59961;50.232;8.616;2022-09-24T08:06:11;9.50;;;6.00;;
72087;SDS011;59961;50.232;8.616;2022-09-24T08:08:36;9.80;;;6.95;;
72087;SDS011;59961;50.232;8.616;2022-09-24T08:11:03;9.32;;;6.25;;
72087;SDS011;59961;50.232;8.616;2022-09-24T08:13:28;13.27;;;6.70;;
72087;SDS011;59961;50.232;8.616;2022-09-24T08:15:57;9.75;;;6.20;;
72087;SDS011;59961;50.232;8.616;2022-09-24T08:18:23;10.15;;;6.68;;
72087;SDS011;59961;50.232;8.616;2022-09-24T08:20:48;9.13;;;5.72;;
72087;SDS011;59961;50.232;8.616;2022-09-24T08:23:13;10.15;;;6.50;;
72087;SDS011;59961;50.232;8.616;2022-09-24T08:25:38;11.00;;;6.83;;
72087;SDS011;59961;50.232;8.616;2022-09-24T08:28:04;12.40;;;7.07;;
72087;SDS011;59961;50.232;8.616;2022-09-24T08:30:30;13.07;;;7.38;;
72087;SDS011;59961;50.232;8.616;2022-09-24T08:32:56;10.40;;;6.60;;
72087;SDS011;59961;50.232;8.616;2022-09-24T08:35:21;9.27;;;6.40;;
72087;SDS011;59961;50.232;8.616;2022-09-24T08:37:47;9.65;;;6.60;;
72087;SDS011;59961;50.232;8.616;2022-09-24T08:40:17;11.37;;;7.33;;
72087;SDS011;59961;50.232;8.616;2022-09-24T08:42:50;10.38;;;6.45;;
72087;SDS011;59961;50.232;8.616;2022-09-24T08:45:19;12.88;;;6.68;;
72087;SDS011;59961;50.232;8.616;2022-09-24T08:48:07;9.90;;;6.60;;
72087;SDS011;59961;50.232;8.616;2022-09-24T08:50:34;11.07;;;6.78;;
72087;SDS011;59961;50.232;8.616;2022-09-24T08:55:45;8.88;;;6.03;;
72087;SDS011;59961;50.232;8.616;2022-09-24T08:58:19;14.43;;;7.10;;
72087;SDS011;59961;50.232;8.616;2022-09-24T09:01:30;10.98;;;5.70;;
72087;SDS011;59961;50.232;8.616;2022-09-24T09:06:09;13.03;;;5.90;;
72087;SDS011;59961;50.232;8.616;2022-09-24T09:11:06;12.90;;;6.97;;
72087;SDS011;59961;50.232;8.616;2022-09-24T09:13:35;11.63;;;6.72;;
72087;SDS011;59961;50.232;8.616;2022-09-24T09:16:06;13.20;;;7.20;;
72087;SDS011;59961;50.232;8.616;2022-09-24T09:18:40;16.53;;;6.43;;
72087;SDS011;59961;50.232;8.616;2022-09-24T09:21:23;12.23;;;6.65;;
72087;SDS011;59961;50.232;8.616;2022-09-24T09:23:50;10.10;;;6.40;;
72087;SDS011;59961;50.232;8.616;2022-09-24T09:26:16;12.23;;;6.85;;
72087;SDS011;59961;50.232;8.616;2022-09-24T09:28:45;11.20;;;6.95;;
72087;SDS011;59961;50.232;8.616;2022-09-24T09:34:01;10.20;;;6.15;;
72087;SDS011;59961;50.232;8.616;2022-09-24T09:41:51;13.97;;;7.47;;
72087;SDS011;59961;50.232;8.616;2022-09-24T09:44:21;13.00;;;6.35;;
72087;SDS011;59961;50.232;8.616;2022-09-24T09:46:50;7.20;;;4.40;;
72087;SDS011;59961;50.232;8.616;2022-09-24T09:49:18;7.93;;;5.30;;
72087;SDS011;59961;50.232;8.616;2022-09-24T09:51:44;11.80;;;6.40;;
72087;SDS011;59961;50.232;8.616;2022-09-24T09:54:09;10.97;;;6.20;;
72087;SDS011;59961;50.232;8.616;2022-09-24T09:56:44;11.43;;;6.53;;
72087;SDS011;59961;50.232;8.616;2022-09-24T10:01:37;7.82;;;4.30;;
72087;SDS011;59961;50.232;8.616;2022-09-24T10:04:05;10.37;;;4.80;;
72087;SDS011;59961;50.232;8.616;2022-09-24T10:06:32;9.50;;;5.88;;
72087;SDS011;59961;50.232;8.616;2022-09-24T10:09:11;10.60;;;5.90;;
72087;SDS011;59961;50.232;8.616;2022-09-24T10:11:36;10.07;;;5.38;;
72087;SDS011;59961;50.232;8.616;2022-09-24T10:14:02;13.43;;;5.82;;
72087;SDS011;59961;50.232;8.616;2022-09-24T10:16:27;10.43;;;5.00;;
72087;SDS011;59961;50.232;8.616;2022-09-24T10:18:53;10.90;;;5.70;;
72087;SDS011;59961;50.232;8.616;2022-09-24T10:21:31;10.30;;;6.00;;
72087;SDS011;59961;50.232;8.616;2022-09-24T10:24:00;9.97;;;6.03;;
72087;SDS011;59961;50.232;8.616;2022-09-24T10:26:36;8.65;;;5.55;;
72087;SDS011;59961;50.232;8.616;2022-09-24T10:29:01;8.30;;;5.40;;
72087;SDS011;59961;50.232;8.616;2022-09-24T10:31:46;11.88;;;6.07;;
72087;SDS011;59961;50.232;8.616;2022-09-24T10:34:31;10.02;;;5.65;;
72087;SDS011;59961;50.232;8.616;2022-09-24T10:37:00;12.33;;;5.87;;
72087;SDS011;59961;50.232;8.616;2022-09-24T10:39:26;8.70;;;5.35;;
72087;SDS011;59961;50.232;8.616;2022-09-24T10:41:54;9.93;;;6.00;;
72087;SDS011;59961;50.232;8.616;2022-09-24T10:44:20;9.88;;;5.55;;
72087;SDS011;59961;50.232;8.616;2022-09-24T10:47:01;11.20;;;5.72;;
72087;SDS011;59961;50.232;8.616;2022-09-24T10:50:09;8.60;;;5.17;;
72087;SDS011;59961;50.232;8.616;2022-09-24T10:52:30;12.48;;;5.18;;
72087;SDS011;59961;50.232;8.616;2022-09-24T10:55:02;9.63;;;5.70;;
72087;SDS011;59961;50.232;8.616;2022-09-24T11:00:39;9.02;;;3.90;;
72087;SDS011;59961;50.232;8.616;2022-09-24T11:08:46;11.45;;;4.30;;
72087;SDS011;59961;50.232;8.616;2022-09-24T11:11:27;11.95;;;5.30;;
72087;SDS011;59961;50.232;8.616;2022-09-24T11:17:02;10.93;;;5.67;;
72087;SDS011;59961;50.232;8.616;2022-09-24T11:19:28;7.50;;;4.45;;
72087;SDS011;59961;50.232;8.616;2022-09-24T11:22:14;10.00;;;5.55;;
72087;SDS011;59961;50.232;8.616;2022-09-24T11:24:43;11.75;;;6.40;;
72087;SDS011;59961;50.232;8.616;2022-09-24T11:27:37;7.82;;;4.00;;
72087;SDS011;59961;50.232;8.616;2022-09-24T11:38:15;4.90;;;3.00;;
72087;SDS011;59961;50.232;8.616;2022-09-24T11:40:56;8.30;;;5.50;;
72087;SDS011;59961;50.232;8.616;2022-09-24T11:46:15;7.63;;;4.57;;
72087;SDS011;59961;50.232;8.616;2022-09-24T11:51:14;5.82;;;3.17;;
72087;SDS011;59961;50.232;8.616;2022-09-24T11:53:59;10.85;;;5.20;;
72087;SDS011;59961;50.232;8.616;2022-09-24T11:56:50;7.07;;;3.55;;
72087;SDS011;59961;50.232;8.616;2022-09-24T12:05:45;8.60;;;4.40;;
72087;SDS011;59961;50.232;8.616;2022-09-24T12:11:24;4.75;;;2.30;;
72087;SDS011;59961;50.232;8.616;2022-09-24T12:14:13;7.57;;;3.37;;
72087;SDS011;59961;50.232;8.616;2022-09-24T12:16:58;7.88;;;3.42;;
72087;SDS011;59961;50.232;8.616;2022-09-24T12:22:33;8.52;;;5.10;;
72087;SDS011;59961;50.232;8.616;2022-09-24T12:25:03;9.23;;;4.15;;
72087;SDS011;59961;50.232;8.616;2022-09-24T12:30:33;7.57;;;3.72;;
72087;SDS011;59961;50.232;8.616;2022-09-24T12:38:56;6.72;;;3.33;;
72087;SDS011;59961;50.232;8.616;2022-09-24T12:41:30;5.20;;;3.27;;
72087;SDS011;59961;50.232;8.616;2022-09-24T12:46:55;5.63;;;2.80;;
72087;SDS011;59961;50.232;8.616;2022-09-24T12:51:53;5.17;;;2.77;;
72087;SDS011;59961;50.232;8.616;2022-09-24T12:54:21;6.47;;;3.35;;
72087;SDS011;59961;50.232;8.616;2022-09-24T12:56:48;5.87;;;3.40;;
72087;SDS011;59961;50.232;8.616;2022-09-24T12:59:31;8.00;;;4.18;;
72087;SDS011;59961;50.232;8.616;2022-09-24T13:02:12;8.90;;;3.17;;
72087;SDS011;59961;50.232;8.616;2022-09-24T13:04:42;6.40;;;3.30;;
72087;SDS011;59961;50.232;8.616;2022-09-24T13:09:51;5.38;;;3.00;;
72087;SDS011;59961;50.232;8.616;2022-09-24T13:14:49;5.82;;;2.90;;
72087;SDS011;59961;50.232;8.616;2022-09-24T13:17:15;6.32;;;2.70;;
72087;SDS011;59961;50.232;8.616;2022-09-24T13:19:58;6.10;;;2.97;;
72087;SDS011;59961;50.232;8.616;2022-09-24T13:30:39;8.57;;;4.20;;
72087;SDS011;59961;50.232;8.616;2022-09-24T13:35:30;7.67;;;3.53;;
72087;SDS011;59961;50.232;8.616;2022-09-24T13:37:57;5.68;;;3.15;;
72087;SDS011;59961;50.232;8.616;2022-09-24T13:40:27;6.90;;;2.90;;
72087;SDS011;59961;50.232;8.616;2022-09-24T13:43:04;6.88;;;3.20;;
72087;SDS011;59961;50.232;8.616;2022-09-24T13:45:31;5.95;;;2.20;;
72087;SDS011;59961;50.232;8.616;2022-09-24T13:47:58;5.80;;;2.47;;
72087;SDS011;59961;50.232;8.616;2022-09-24T13:50:38;6.47;;;2.72;;
72087;SDS011;59961;50.232;8.616;2022-09-24T13:53:15;6.28;;;2.80;;
72087;SDS011;59961;50.232;8.616;2022-09-24T13:55:53;5.55;;;2.80;;
72087;SDS011;59961;50.232;8.616;2022-09-24T13:58:37;5.75;;;2.58;;
72087;SDS011;59961;50.232;8.616;2022-09-24T14:01:04;6.33;;;2.77;;
72087;SDS011;59961;50.232;8.616;2022-09-24T14:03:31;6.25;;;2.95;;
72087;SDS011;59961;50.232;8.616;2022-09-24T14:06:00;7.15;;;3.42;;
72087;SDS011;59961;50.232;8.616;2022-09-24T14:08:32;7.45;;;3.03;;
72087;SDS011;59961;50.232;8.616;2022-09-24T14:11:04;7.90;;;3.83;;
72087;SDS011;59961;50.232;8.616;2022-09-24T14:13:34;6.00;;;3.30;;
72087;SDS011;59961;50.232;8.616;2022-09-24T14:16:16;6.80;;;3.23;;
72087;SDS011;59961;50.232;8.616;2022-09-24T14:19:00;5.90;;;3.10;;
72087;SDS011;59961;50.232;8.616;2022-09-24T14:21:58;6.80;;;3.38;;
72087;SDS011;59961;50.232;8.616;2022-09-24T14:24:27;5.32;;;2.58;;
72087;SDS011;59961;50.232;8.616;2022-09-24T14:26:53;7.80;;;3.55;;
72087;SDS011;59961;50.232;8.616;2022-09-24T14:29:28;7.33;;;2.57;;
72087;SDS011;59961;50.232;8.616;2022-09-24T14:50:37;6.15;;;2.92;;
72087;SDS011;59961;50.232;8.616;2022-09-24T14:53:19;7.18;;;2.90;;
72087;SDS011;59961;50.232;8.616;2022-09-24T14:55:45;5.78;;;2.80;;
72087;SDS011;59961;50.232;8.616;2022-09-24T15:00:54;4.55;;;2.72;;
72087;SDS011;59961;50.232;8.616;2022-09-24T15:03:25;6.72;;;2.45;;
72087;SDS011;59961;50.232;8.616;2022-09-24T15:05:51;3.97;;;2.20;;
72087;SDS011;59961;50.232;8.616;2022-09-24T15:08:25;4.57;;;2.15;;
72087;SDS011;59961;50.232;8.616;2022-09-24T15:10:52;5.88;;;2.38;;
72087;SDS011;59961;50.232;8.616;2022-09-24T15:13:19;5.90;;;2.80;;
72087;SDS011;59961;50.232;8.616;2022-09-24T15:15:46;8.55;;;2.67;;
72087;SDS011;59961;50.232;8.616;2022-09-24T15:18:11;5.33;;;2.60;;
72087;SDS011;59961;50.232;8.616;2022-09-24T15:20:37;5.70;;;2.40;;
72087;SDS011;59961;50.232;8.616;2022-09-24T15:23:02;8.03;;;2.90;;
72087;SDS011;59961;50.232;8.616;2022-09-24T15:25:27;6.40;;;2.63;;
72087;SDS011;59961;50.232;8.616;2022-09-24T15:27:52;5.30;;;2.37;;
72087;SDS011;59961;50.232;8.616;2022-09-24T15:30:19;10.93;;;3.50;;
72087;SDS011;59961;50.232;8.616;2022-09-24T15:32:44;5.03;;;2.47;;
72087;SDS011;59961;50.232;8.616;2022-09-24T15:35:12;3.88;;;2.03;;
72087;SDS011;59961;50.232;8.616;2022-09-24T15:37:38;6.47;;;2.33;;
72087;SDS011;59961;50.232;8.616;2022-09-24T15:40:05;4.70;;;2.37;;
72087;SDS011;59961;50.232;8.616;2022-09-24T15:42:30;4.97;;;2.03;;
72087;SDS011;59961;50.232;8.616;2022-09-24T15:44:56;6.70;;;2.63;;
72087;SDS011;59961;50.232;8.616;2022-09-24T15:47:21;5.97;;;2.47;;
72087;SDS011;59961;50.232;8.616;2022-09-24T15:49:47;4.03;;;2.23;;
72087;SDS011;59961;50.232;8.616;2022-09-24T15:54:48;6.50;;;2.92;;
72087;SDS011;59961;50.232;8.616;2022-09-24T15:57:13;4.73;;;1.90;;
72087;SDS011;59961;50.232;8.616;2022-09-24T15:59:38;4.40;;;1.90;;
72087;SDS011;59961;50.232;8.616;2022-09-24T16:02:05;4.80;;;2.57;;
72087;SDS011;59961;50.232;8.616;2022-09-24T16:04:35;5.43;;;2.33;;
72087;SDS011;59961;50.232;8.616;2022-09-24T16:07:00;4.80;;;2.30;;
72087;SDS011;59961;50.232;8.616;2022-09-24T16:09:25;5.68;;;2.50;;
72087;SDS011;59961;50.232;8.616;2022-09-24T16:11:50;5.07;;;2.38;;
72087;SDS011;59961;50.232;8.616;2022-09-24T16:14:15;4.97;;;2.20;;
72087;SDS011;59961;50.232;8.616;2022-09-24T16:16:40;5.03;;;2.37;;
72087;SDS011;59961;50.232;8.616;2022-09-24T16:19:05;7.43;;;2.23;;
72087;SDS011;59961;50.232;8.616;2022-09-24T16:21:32;4.78;;;2.30;;
72087;SDS011;59961;50.232;8.616;2022-09-24T16:23:57;5.07;;;2.50;;
72087;SDS011;59961;50.232;8.616;2022-09-24T16:26:24;8.40;;;2.75;;
72087;SDS011;59961;50.232;8.616;2022-09-24T16:28:49;3.73;;;2.13;;
72087;SDS011;59961;50.232;8.616;2022-09-24T16:31:15;5.10;;;2.30;;
72087;SDS011;59961;50.232;8.616;2022-09-24T16:33:41;6.33;;;3.30;;
72087;SDS011;59961;50.232;8.616;2022-09-24T16:36:06;7.00;;;2.73;;
72087;SDS011;59961;50.232;8.616;2022-09-24T16:38:35;4.72;;;2.60;;
72087;SDS011;59961;50.232;8.616;2022-09-24T16:41:00;4.57;;;2.20;;
72087;SDS011;59961;50.232;8.616;2022-09-24T16:43:26;6.40;;;2.40;;
72087;SDS011;59961;50.232;8.616;2022-09-24T16:45:51;8.77;;;2.33;;
72087;SDS011;59961;50.232;8.616;2022-09-24T16:48:16;5.70;;;2.23;;
72087;SDS011;59961;50.232;8.616;2022-09-24T16:50:42;5.57;;;2.40;;
72087;SDS011;59961;50.232;8.616;2022-09-24T16:53:07;5.72;;;2.00;;
72087;SDS011;59961;50.232;8.616;2022-09-24T16:55:32;5.22;;;2.45;;
72087;SDS011;59961;50.232;8.616;2022-09-24T16:57:57;4.97;;;2.50;;
72087;SDS011;59961;50.232;8.616;2022-09-24T17:00:22;6.93;;;2.42;;
72087;SDS011;59961;50.232;8.616;2022-09-24T17:02:47;5.57;;;2.75;;
72087;SDS011;59961;50.232;8.616;2022-09-24T17:05:12;5.87;;;2.70;;
72087;SDS011;59961;50.232;8.616;2022-09-24T17:07:38;4.50;;;2.10;;
72087;SDS011;59961;50.232;8.616;2022-09-24T17:10:03;4.23;;;2.20;;
72087;SDS011;59961;50.232;8.616;2022-09-24T17:12:44;5.85;;;2.50;;
72087;SDS011;59961;50.232;8.616;2022-09-24T17:15:10;5.88;;;2.50;;
72087;SDS011;59961;50.232;8.616;2022-09-24T17:17:38;6.10;;;2.55;;